Time;durP1;ratioP1;P1;durP2;ratioP2;P2;SDS_P1;SDS_P2;PMS_P1;PMS_P2;Temp;Humidity;BMP_temperature;BMP_pressure;BME280_temperature;BME280_humidity;BME280_pressure;Samples;Min_cycle;Max_cycle;Signal;HPM_P1;HPM_P2
2023/07/15 00:00:23;;;;;;;0.10;0.10;;;13.60;60.70;;;;;;5051960;28;20680;-58
2023/07/15 00:02:55;;;;;;;0.10;0.10;;;13.50;60.60;;;;;;5033058;28;20205;-58
2023/07/15 00:05:35;;;;;;;0.10;0.10;;;13.60;60.70;;;;;;5032823;28;20216;-58
2023/07/15 00:08:05;;;;;;;0.10;0.10;;;13.60;60.80;;;;;;5032945;28;20714;-56
2023/07/15 00:10:37;;;;;;;0.10;0.10;;;13.60;60.70;;;;;;5032763;28;20208;-54
2023/07/15 00:13:11;;;;;;;0.10;0.10;;;13.60;60.80;;;;;;5032746;28;20228;-55
2023/07/15 00:15:42;;;;;;;0.20;0.20;;;13.60;61.00;;;;;;5032694;28;20219;-57
2023/07/15 00:18:15;;;;;;;0.10;0.10;;;13.70;61.10;;;;;;5032713;28;20359;-57
2023/07/15 00:20:46;;;;;;;0.10;0.10;;;13.70;61.10;;;;;;5032693;28;20660;-56
2023/07/15 00:23:21;;;;;;;0.10;0.10;;;13.70;61.10;;;;;;5032479;28;20288;-55
2023/07/15 00:25:53;;;;;;;0.10;0.10;;;13.70;61.10;;;;;;5032393;28;20252;-57
2023/07/15 00:28:24;;;;;;;0.10;0.10;;;13.70;61.10;;;;;;5032283;28;20287;-57
2023/07/15 00:30:57;;;;;;;0.10;0.10;;;13.70;61.00;;;;;;5036767;28;20211;-58
2023/07/15 00:33:29;;;;;;;0.10;0.10;;;13.80;61.00;;;;;;5051948;28;20230;-57
2023/07/15 00:36:00;;;;;;;0.10;0.10;;;13.80;61.10;;;;;;5052166;28;20215;-57
2023/07/15 00:38:31;;;;;;;0.10;0.10;;;13.80;61.00;;;;;;5051761;28;20658;-55
2023/07/15 00:41:02;;;;;;;0.10;0.10;;;13.90;61.10;;;;;;5052219;28;20203;-58
2023/07/15 00:43:58;;;;;;;0.15;0.15;;;13.80;61.00;;;;;;5052377;28;20260;-56
2023/07/15 00:46:58;;;;;;;0.10;0.10;;;13.90;61.00;;;;;;5051751;28;20200;-57
2023/07/15 00:49:31;;;;;;;0.10;0.10;;;13.90;61.00;;;;;;5051926;28;20279;-58
2023/07/15 00:52:05;;;;;;;0.13;0.13;;;13.90;61.00;;;;;;5051924;28;20250;-57
2023/07/15 00:54:37;;;;;;;0.10;0.10;;;14.00;61.20;;;;;;5051703;28;20222;-58
2023/07/15 00:57:10;;;;;;;0.10;0.10;;;14.00;61.20;;;;;;5051763;28;20195;-57
2023/07/15 00:59:41;;;;;;;0.10;0.10;;;14.00;61.20;;;;;;5051982;28;20600;-58
2023/07/15 01:02:15;;;;;;;0.10;0.10;;;14.00;61.20;;;;;;5051816;28;20203;-58
2023/07/15 01:04:45;;;;;;;0.10;0.10;;;14.00;61.20;;;;;;5051737;28;20215;-58
2023/07/15 01:07:17;;;;;;;0.05;0.05;;;14.10;61.20;;;;;;5051294;28;20195;-57
2023/07/15 01:09:50;;;;;;;0.10;0.10;;;14.10;61.20;;;;;;5051181;28;20245;-58
2023/07/15 01:12:20;;;;;;;0.10;0.10;;;14.10;61.20;;;;;;5051322;28;20223;-58
2023/07/15 01:14:51;;;;;;;0.10;0.10;;;14.10;61.20;;;;;;5051484;28;20215;-58
2023/07/15 01:17:24;;;;;;;0.10;0.10;;;14.20;61.30;;;;;;5051297;28;20549;-57
2023/07/15 01:19:55;;;;;;;0.10;0.10;;;14.20;61.30;;;;;;5050889;28;20191;-58
2023/07/15 01:22:26;;;;;;;0.10;0.10;;;14.20;61.20;;;;;;5051163;28;20199;-58
2023/07/15 01:24:59;;;;;;;0.10;0.10;;;14.20;61.20;;;;;;5050978;28;20211;-58
2023/07/15 01:27:29;;;;;;;0.10;0.10;;;14.20;61.20;;;;;;5051720;28;20566;-58
2023/07/15 01:30:00;;;;;;;0.10;0.10;;;14.30;61.20;;;;;;5051311;28;20656;-57
2023/07/15 01:32:30;;;;;;;0.10;0.10;;;14.30;61.20;;;;;;5032897;28;20232;-57
2023/07/15 01:35:03;;;;;;;0.10;0.10;;;14.30;61.20;;;;;;5033643;28;20219;-58
2023/07/15 01:37:34;;;;;;;0.00;0.00;;;14.30;61.20;;;;;;5031726;28;20204;-58
2023/07/15 01:40:09;;;;;;;0.10;0.10;;;14.40;61.30;;;;;;5031258;28;20203;-58
2023/07/15 01:42:40;;;;;;;0.10;0.10;;;14.40;61.30;;;;;;5035669;28;20453;-58
2023/07/15 01:45:11;;;;;;;0.10;0.10;;;14.50;61.30;;;;;;5035654;28;20258;-57
2023/07/15 01:47:42;;;;;;;0.10;0.10;;;14.50;61.20;;;;;;5035481;28;20204;-58
2023/07/15 01:50:13;;;;;;;0.10;0.10;;;14.50;61.20;;;;;;5035373;28;20207;-57
2023/07/15 01:52:43;;;;;;;0.10;0.10;;;14.50;62.10;;;;;;5035236;28;20631;-58
2023/07/15 01:55:16;;;;;;;0.05;0.05;;;14.60;61.30;;;;;;5040721;28;20208;-58
2023/07/15 01:57:46;;;;;;;0.00;0.00;;;14.60;61.30;;;;;;5055365;28;20195;-58
2023/07/15 02:00:20;;;;;;;0.10;0.10;;;14.60;61.30;;;;;;5055358;28;20202;-57
2023/07/15 02:02:51;;;;;;;0.10;0.10;;;14.60;61.30;;;;;;5035118;28;20197;-58
2023/07/15 02:05:21;;;;;;;0.10;0.10;;;14.60;61.30;;;;;;5035229;28;20212;-58
2023/07/15 02:07:52;;;;;;;0.10;0.10;;;14.60;61.30;;;;;;5034928;28;20200;-58
2023/07/15 02:10:25;;;;;;;0.10;0.10;;;14.70;61.30;;;;;;5034638;28;20213;-59
2023/07/15 02:12:56;;;;;;;0.10;0.10;;;14.70;61.30;;;;;;5035142;28;20692;-58
2023/07/15 02:15:27;;;;;;;0.10;0.10;;;14.70;61.20;;;;;;5035011;28;20224;-58
2023/07/15 02:17:58;;;;;;;0.10;0.10;;;14.80;61.30;;;;;;5035091;28;20200;-57
2023/07/15 02:20:29;;;;;;;0.10;0.10;;;14.80;61.30;;;;;;5035047;28;20196;-58
2023/07/15 02:22:59;;;;;;;0.10;0.10;;;14.80;61.30;;;;;;5034917;28;20207;-57
2023/07/15 02:25:32;;;;;;;0.10;0.10;;;14.90;61.40;;;;;;5034833;28;20216;-58
2023/07/15 02:28:02;;;;;;;0.03;0.03;;;14.90;61.40;;;;;;5050115;28;20546;-58
2023/07/15 02:30:33;;;;;;;0.00;0.00;;;14.90;61.40;;;;;;5052324;28;20666;-58
2023/07/15 02:33:06;;;;;;;0.10;0.10;;;14.90;61.40;;;;;;5034707;28;20226;-58
2023/07/15 02:35:36;;;;;;;0.10;0.10;;;14.90;61.40;;;;;;5034439;28;20227;-58
2023/07/15 02:38:07;;;;;;;0.10;0.10;;;15.00;61.40;;;;;;5034078;28;20283;-58
2023/07/15 02:40:40;;;;;;;0.20;0.20;;;15.00;61.40;;;;;;5038857;28;20195;-58
2023/07/15 02:43:11;;;;;;;0.10;0.10;;;15.00;61.40;;;;;;5053846;28;20201;-58
2023/07/15 02:45:42;;;;;;;0.10;0.10;;;15.10;61.40;;;;;;5054149;28;20219;-58
2023/07/15 02:48:12;;;;;;;0.10;0.10;;;15.10;61.40;;;;;;5054435;28;20202;-58
2023/07/15 02:50:44;;;;;;;0.10;0.10;;;15.20;62.30;;;;;;5054341;28;20203;-58
2023/07/15 02:53:14;;;;;;;0.10;0.10;;;15.20;61.40;;;;;;5052877;28;20223;-58
2023/07/15 02:55:48;;;;;;;0.10;0.10;;;15.20;61.40;;;;;;5054035;28;20224;-58
2023/07/15 02:58:19;;;;;;;0.10;0.10;;;15.20;61.40;;;;;;5054033;28;20251;-58
2023/07/15 03:00:52;;;;;;;0.10;0.10;;;15.30;61.40;;;;;;5054296;28;20635;-58
2023/07/15 03:03:23;;;;;;;0.10;0.10;;;15.30;61.40;;;;;;5053488;28;20195;-57
2023/07/15 03:05:54;;;;;;;0.10;0.10;;;15.30;61.40;;;;;;5053806;28;20404;-58
2023/07/15 03:08:25;;;;;;;0.10;0.10;;;15.40;61.40;;;;;;5053420;28;20200;-58
2023/07/15 03:10:58;;;;;;;0.10;0.10;;;15.40;61.40;;;;;;5053330;28;20196;-58
2023/07/15 03:13:29;;;;;;;0.10;0.10;;;15.40;61.50;;;;;;5053867;28;20620;-58
2023/07/15 03:15:59;;;;;;;0.10;0.10;;;15.40;61.50;;;;;;5053622;28;20226;-58
2023/07/15 03:18:30;;;;;;;0.10;0.10;;;15.50;61.60;;;;;;5053711;28;20203;-58
2023/07/15 03:21:00;;;;;;;0.03;0.03;;;15.50;61.60;;;;;;5053898;28;20202;-57
2023/07/15 03:23:31;;;;;;;0.10;0.10;;;15.50;61.60;;;;;;5053940;28;20204;-57
2023/07/15 03:26:04;;;;;;;0.10;0.10;;;15.60;61.60;;;;;;5053396;28;20269;-57
2023/07/15 03:28:34;;;;;;;0.10;0.10;;;15.60;61.50;;;;;;5053366;28;20262;-57
2023/07/15 03:31:05;;;;;;;0.10;0.10;;;15.60;61.40;;;;;;5053501;28;20253;-57
2023/07/15 03:33:36;;;;;;;0.10;0.10;;;15.70;61.40;;;;;;5053061;28;20212;-57
2023/07/15 03:36:07;;;;;;;0.08;0.08;;;15.70;61.30;;;;;;5053042;28;20243;-57
2023/07/15 03:38:37;;;;;;;0.10;0.10;;;15.70;61.30;;;;;;5052750;28;20198;-58
2023/07/15 03:41:10;;;;;;;0.10;0.10;;;15.70;61.30;;;;;;5050178;28;20640;-58
2023/07/15 03:43:40;;;;;;;0.10;0.10;;;15.80;61.30;;;;;;5035079;28;20195;-56
2023/07/15 03:46:12;;;;;;;0.05;0.05;;;15.80;61.30;;;;;;5035319;28;20215;-57
2023/07/15 03:48:43;;;;;;;0.10;0.10;;;15.80;63.30;;;;;;5052511;28;20553;-56
2023/07/15 03:51:14;;;;;;;0.00;0.00;;;15.90;64.20;;;;;;5053193;28;20195;-56
2023/07/15 03:53:45;;;;;;;0.10;0.10;;;16.00;64.10;;;;;;5052991;28;20219;-56
2023/07/15 03:56:18;;;;;;;0.03;0.03;;;16.10;63.90;;;;;;5052879;28;20218;-53
2023/07/15 03:58:49;;;;;;;0.03;0.03;;;16.20;63.80;;;;;;5041127;28;20607;-57
2023/07/15 04:01:19;;;;;;;0.10;0.10;;;16.20;63.50;;;;;;5047015;28;20208;-57
2023/07/15 04:03:50;;;;;;;0.10;0.10;;;16.30;63.40;;;;;;5046813;28;20189;-57
2023/07/15 04:06:21;;;;;;;0.10;0.10;;;16.30;63.20;;;;;;5045269;28;20267;-57
2023/07/15 04:08:52;;;;;;;0.10;0.10;;;16.30;63.00;;;;;;5051765;28;20191;-57
2023/07/15 04:11:24;;;;;;;0.10;0.10;;;16.40;62.80;;;;;;5052076;28;20663;-57
2023/07/15 04:13:55;;;;;;;0.10;0.10;;;16.40;62.70;;;;;;5052058;28;20227;-58
2023/07/15 04:16:25;;;;;;;0.10;0.10;;;16.40;62.60;;;;;;5051849;28;20191;-57
2023/07/15 04:18:56;;;;;;;0.10;0.10;;;16.50;62.50;;;;;;5052436;28;20222;-57
2023/07/15 04:21:27;;;;;;;0.10;0.10;;;16.50;62.30;;;;;;5051549;28;20188;-57
2023/07/15 04:23:57;;;;;;;0.10;0.10;;;16.60;62.30;;;;;;5052080;28;20196;-58
2023/07/15 04:26:31;;;;;;;0.10;0.10;;;16.60;62.20;;;;;;5051285;28;20215;-57
2023/07/15 04:29:02;;;;;;;0.10;0.10;;;16.60;62.10;;;;;;5051678;28;20234;-57
2023/07/15 04:31:32;;;;;;;0.05;0.05;;;16.60;62.00;;;;;;5051301;28;20210;-58
2023/07/15 04:34:03;;;;;;;0.10;0.10;;;16.70;62.00;;;;;;5050790;28;20219;-57
2023/07/15 04:36:34;;;;;;;0.10;0.10;;;16.70;62.00;;;;;;5051955;28;20203;-57
2023/07/15 04:39:05;;;;;;;0.10;0.10;;;16.70;61.90;;;;;;5050745;28;20542;-58
2023/07/15 04:41:37;;;;;;;0.10;0.10;;;16.70;61.90;;;;;;5052174;28;20237;-58
2023/07/15 04:44:08;;;;;;;0.10;0.10;;;16.80;61.80;;;;;;5051572;28;20203;-56
2023/07/15 04:46:38;;;;;;;0.10;0.10;;;16.80;61.80;;;;;;5050829;28;20187;-56
2023/07/15 04:49:10;;;;;;;0.10;0.10;;;16.80;62.30;;;;;;5051029;28;20663;-57
2023/07/15 04:51:41;;;;;;;0.10;0.10;;;16.80;62.40;;;;;;5050723;28;20630;-57
2023/07/15 04:54:11;;;;;;;0.00;0.00;;;16.80;61.70;;;;;;5043761;28;20706;-56
2023/07/15 04:56:44;;;;;;;0.10;0.10;;;16.90;61.10;;;;;;5051507;28;20282;-56
2023/07/15 04:59:15;;;;;;;0.00;0.00;;;16.90;60.60;;;;;;5050209;28;20191;-57
2023/07/15 05:01:46;;;;;;;0.00;0.00;;;16.80;60.20;;;;;;5038364;28;20204;-56
2023/07/15 05:04:16;;;;;;;0.00;0.00;;;16.80;59.80;;;;;;5043654;28;20273;-58
2023/07/15 05:06:47;;;;;;;0.03;0.03;;;16.80;59.60;;;;;;5051425;28;20264;-56
2023/07/15 05:09:18;;;;;;;0.05;0.05;;;16.70;59.40;;;;;;5048647;28;20234;-56
2023/07/15 05:11:50;;;;;;;0.10;0.10;;;16.60;59.10;;;;;;5050398;28;20207;-56
2023/07/15 05:14:21;;;;;;;0.00;0.00;;;16.60;59.00;;;;;;5049619;28;20223;-57
2023/07/15 05:16:52;;;;;;;0.05;0.05;;;16.60;58.90;;;;;;5050486;28;20203;-57
2023/07/15 05:19:23;;;;;;;0.10;0.10;;;16.50;58.70;;;;;;5050838;28;20194;-56
2023/07/15 05:21:53;;;;;;;0.10;0.10;;;16.50;58.70;;;;;;5048489;28;20200;-56
2023/07/15 05:24:28;;;;;;;0.10;0.10;;;16.50;58.50;;;;;;5050261;28;20215;-56
2023/07/15 05:27:00;;;;;;;0.10;0.10;;;16.40;58.20;;;;;;5051267;28;20208;-53
2023/07/15 05:29:31;;;;;;;0.10;0.10;;;16.30;58.10;;;;;;5049992;28;20203;-55
2023/07/15 05:32:02;;;;;;;0.10;0.10;;;16.30;57.90;;;;;;5050372;28;20446;-55
2023/07/15 05:34:32;;;;;;;0.10;0.10;;;16.20;57.70;;;;;;5049223;28;20235;-55
2023/07/15 05:37:03;;;;;;;0.10;0.10;;;16.20;57.60;;;;;;5050188;28;20656;-55
2023/07/15 05:39:33;;;;;;;0.10;0.10;;;16.10;57.50;;;;;;5044674;28;20726;-54
2023/07/15 05:42:06;;;;;;;0.10;0.10;;;16.10;57.40;;;;;;5030994;28;20279;-55
2023/07/15 05:44:37;;;;;;;0.10;0.10;;;16.00;57.60;;;;;;5040148;28;20216;-55
2023/07/15 05:47:08;;;;;;;0.15;0.15;;;15.90;57.60;;;;;;5031037;28;20192;-54
2023/07/15 05:49:39;;;;;;;0.05;0.05;;;15.90;57.60;;;;;;5041826;28;20234;-56
2023/07/15 05:52:10;;;;;;;0.10;0.10;;;15.90;57.50;;;;;;5050160;28;20199;-55
2023/07/15 05:54:41;;;;;;;0.03;0.03;;;15.90;57.40;;;;;;5050149;28;20227;-55
2023/07/15 05:57:14;;;;;;;0.17;0.17;;;15.90;57.20;;;;;;5050316;28;20657;-53
2023/07/15 05:59:44;;;;;;;0.10;0.10;;;15.80;57.00;;;;;;5050516;28;20714;-54
2023/07/15 06:02:15;;;;;;;0.10;0.10;;;15.80;56.90;;;;;;5050801;28;20271;-53
2023/07/15 06:04:46;;;;;;;0.00;0.00;;;15.80;56.70;;;;;;5050269;28;20217;-55
2023/07/15 06:07:16;;;;;;;0.10;0.10;;;15.80;56.60;;;;;;5049382;28;20195;-56
2023/07/15 06:09:47;;;;;;;0.10;0.10;;;15.70;56.50;;;;;;5049235;28;20207;-55
2023/07/15 06:12:19;;;;;;;0.08;0.08;;;15.70;56.40;;;;;;5050565;28;20610;-54
2023/07/15 06:14:50;;;;;;;0.10;0.10;;;15.70;56.30;;;;;;5048992;28;20641;-55
2023/07/15 06:17:20;;;;;;;0.10;0.10;;;15.70;56.30;;;;;;5050932;28;20195;-54
2023/07/15 06:19:51;;;;;;;0.05;0.05;;;15.70;56.10;;;;;;5049844;28;20445;-55
2023/07/15 06:22:22;;;;;;;0.00;0.00;;;15.70;55.90;;;;;;5050624;28;20604;-56
2023/07/15 06:24:53;;;;;;;0.10;0.10;;;15.70;55.90;;;;;;5049541;28;20687;-56
2023/07/15 06:27:25;;;;;;;0.10;0.10;;;15.70;55.90;;;;;;5050183;28;20202;-56
2023/07/15 06:29:56;;;;;;;0.10;0.10;;;15.70;55.70;;;;;;5053370;28;20191;-55
2023/07/15 06:32:27;;;;;;;0.17;0.17;;;15.70;55.60;;;;;;5053474;28;20199;-54
2023/07/15 06:34:57;;;;;;;0.10;0.10;;;15.70;55.30;;;;;;5053586;28;20744;-55
2023/07/15 06:37:28;;;;;;;0.10;0.10;;;15.60;55.30;;;;;;5053891;28;20195;-56
2023/07/15 06:39:59;;;;;;;0.10;0.10;;;15.60;55.50;;;;;;5053221;28;20199;-55
2023/07/15 06:42:31;;;;;;;0.00;0.00;;;15.70;55.70;;;;;;5053540;28;20188;-52
2023/07/15 06:45:02;;;;;;;0.10;0.10;;;15.70;56.20;;;;;;5053860;28;20219;-57
2023/07/15 06:47:32;;;;;;;0.10;0.10;;;15.70;57.10;;;;;;5041529;28;20711;-55
2023/07/15 06:50:03;;;;;;;0.10;0.10;;;15.70;57.50;;;;;;5052993;28;20196;-55
2023/07/15 06:52:33;;;;;;;0.10;0.10;;;15.70;57.40;;;;;;5048496;28;20188;-53
2023/07/15 06:55:04;;;;;;;0.10;0.10;;;15.80;57.10;;;;;;5033383;28;20235;-55
2023/07/15 06:57:37;;;;;;;0.10;0.10;;;15.80;56.60;;;;;;5041435;28;20202;-54
2023/07/15 07:00:08;;;;;;;0.10;0.10;;;15.90;56.40;;;;;;5053211;28;20245;-55
2023/07/15 07:02:39;;;;;;;0.10;0.10;;;15.90;56.20;;;;;;5041318;28;20191;-54
2023/07/15 07:05:10;;;;;;;0.10;0.10;;;15.90;56.80;;;;;;5053040;28;20208;-51
2023/07/15 07:07:40;;;;;;;0.08;0.08;;;16.00;57.40;;;;;;5053412;28;20191;-55
2023/07/15 07:10:12;;;;;;;0.10;0.10;;;16.00;57.20;;;;;;5052703;28;20204;-56
2023/07/15 07:12:44;;;;;;;0.10;0.10;;;16.00;56.80;;;;;;5052763;28;20200;-57
2023/07/15 07:15:15;;;;;;;0.08;0.08;;;16.00;56.30;;;;;;5052639;28;20231;-56
2023/07/15 07:17:46;;;;;;;0.00;0.00;;;16.10;56.10;;;;;;5052257;28;20609;-56
2023/07/15 07:20:16;;;;;;;0.10;0.10;;;16.10;55.50;;;;;;5052778;28;20199;-56
2023/07/15 07:22:47;;;;;;;0.10;0.10;;;16.10;55.10;;;;;;5052730;28;20211;-52
2023/07/15 07:25:18;;;;;;;0.15;0.15;;;16.10;54.70;;;;;;5053102;28;20223;-53
2023/07/15 07:27:50;;;;;;;0.10;0.10;;;16.10;54.40;;;;;;5052162;28;20664;-55
2023/07/15 07:30:21;;;;;;;0.10;0.10;;;16.10;54.10;;;;;;5052992;28;20200;-54
2023/07/15 07:32:51;;;;;;;0.13;0.13;;;16.10;53.70;;;;;;5052124;28;20199;-56
2023/07/15 07:35:23;;;;;;;0.10;0.10;;;16.00;53.50;;;;;;5053180;28;20653;-55
2023/07/15 07:37:54;;;;;;;0.00;0.00;;;16.00;53.30;;;;;;5053144;28;20192;-52
2023/07/15 07:40:25;;;;;;;0.10;0.10;;;16.00;53.30;;;;;;5052740;28;20600;-52
2023/07/15 07:42:57;;;;;;;0.10;0.10;;;16.00;53.50;;;;;;5049020;28;20192;-52
2023/07/15 07:45:28;;;;;;;0.10;0.10;;;16.00;53.60;;;;;;5046674;28;20219;-55
2023/07/15 07:47:59;;;;;;;0.10;0.10;;;16.00;53.80;;;;;;5034732;28;20196;-51
2023/07/15 07:50:30;;;;;;;0.10;0.10;;;16.00;53.80;;;;;;5035251;28;20223;-52
2023/07/15 07:53:00;;;;;;;0.10;0.10;;;16.00;53.60;;;;;;5041496;28;20194;-54
2023/07/15 07:55:31;;;;;;;0.10;0.10;;;16.00;53.60;;;;;;5052672;28;20397;-53
2023/07/15 07:58:03;;;;;;;0.10;0.10;;;16.00;53.50;;;;;;5052658;28;20226;-50
2023/07/15 08:00:34;;;;;;;0.10;0.10;;;16.00;53.50;;;;;;5049870;28;20265;-52
2023/07/15 08:03:05;;;;;;;0.10;0.10;;;16.00;53.60;;;;;;5032590;28;20670;-52
2023/07/15 08:05:35;;;;;;;0.10;0.10;;;16.00;53.70;;;;;;5032552;28;20216;-52
2023/07/15 08:08:06;;;;;;;0.05;0.05;;;16.10;53.90;;;;;;5032704;28;20258;-55
2023/07/15 08:10:37;;;;;;;0.10;0.10;;;16.10;54.10;;;;;;5032544;28;20208;-55
2023/07/15 08:13:09;;;;;;;0.20;0.20;;;16.10;54.20;;;;;;5032623;28;20706;-54
2023/07/15 08:15:40;;;;;;;0.10;0.10;;;16.10;54.30;;;;;;5032439;28;20696;-54
2023/07/15 08:18:11;;;;;;;0.10;0.10;;;16.10;54.30;;;;;;5032050;28;20192;-55
2023/07/15 08:20:43;;;;;;;0.10;0.10;;;16.10;54.40;;;;;;5032425;28;20721;-55
2023/07/15 08:23:14;;;;;;;0.10;0.10;;;16.10;54.40;;;;;;5032276;28;20235;-50
2023/07/15 08:25:44;;;;;;;0.05;0.05;;;16.10;54.50;;;;;;5032157;28;20220;-52
2023/07/15 08:28:17;;;;;;;0.10;0.10;;;16.20;54.60;;;;;;5031775;28;20204;-53
2023/07/15 08:30:47;;;;;;;0.10;0.10;;;16.20;54.70;;;;;;5032112;28;20660;-52
2023/07/15 08:33:18;;;;;;;0.10;0.10;;;16.10;54.80;;;;;;5031767;28;20662;-53
2023/07/15 08:35:49;;;;;;;0.10;0.10;;;16.20;54.80;;;;;;5032234;28;20281;-54
2023/07/15 08:38:22;;;;;;;0.10;0.10;;;16.20;54.80;;;;;;5032323;28;20257;-55
2023/07/15 08:40:58;;;;;;;0.10;0.10;;;16.20;54.80;;;;;;5039778;28;20184;-55
2023/07/15 08:43:31;;;;;;;0.10;0.10;;;16.20;54.80;;;;;;5051770;28;20199;-54
2023/07/15 08:46:07;;;;;;;0.10;0.10;;;16.20;54.80;;;;;;5051860;28;20261;-52
2023/07/15 08:48:39;;;;;;;0.10;0.10;;;16.20;54.80;;;;;;5051533;28;20198;-54
2023/07/15 08:51:10;;;;;;;0.10;0.10;;;16.20;54.80;;;;;;5051546;28;20648;-54
2023/07/15 08:53:42;;;;;;;0.10;0.10;;;16.20;54.90;;;;;;5051769;28;20257;-54
2023/07/15 08:56:14;;;;;;;0.10;0.10;;;16.20;54.90;;;;;;5048144;28;20227;-56
2023/07/15 08:58:47;;;;;;;0.10;0.10;;;16.20;55.00;;;;;;5045868;28;20207;-54
2023/07/15 09:01:19;;;;;;;0.00;0.00;;;16.20;55.10;;;;;;5051039;28;20249;-55
2023/07/15 09:03:50;;;;;;;0.08;0.08;;;16.20;55.20;;;;;;5036929;28;20272;-53
2023/07/15 09:06:20;;;;;;;0.10;0.10;;;16.20;55.30;;;;;;5034494;28;20683;-54
2023/07/15 09:08:54;;;;;;;0.10;0.10;;;16.20;55.30;;;;;;5051096;28;20283;-56
2023/07/15 09:11:25;;;;;;;0.10;0.10;;;16.20;55.40;;;;;;5050944;28;20196;-56
2023/07/15 09:13:58;;;;;;;0.10;0.10;;;16.30;55.40;;;;;;5050491;28;20662;-53
2023/07/15 09:16:32;;;;;;;0.10;0.10;;;16.30;55.50;;;;;;5049975;28;20222;-56
2023/07/15 09:19:03;;;;;;;0.10;0.10;;;16.30;55.50;;;;;;5048486;28;20245;-54
2023/07/15 09:21:33;;;;;;;0.10;0.10;;;16.30;55.50;;;;;;5050619;28;20199;-55
2023/07/15 09:24:04;;;;;;;0.10;0.10;;;16.30;55.50;;;;;;5049754;28;20187;-55
2023/07/15 09:26:35;;;;;;;0.10;0.10;;;16.30;55.50;;;;;;5049785;28;20287;-54
2023/07/15 09:29:08;;;;;;;0.05;0.05;;;16.20;55.40;;;;;;5050372;28;20192;-55
2023/07/15 09:31:42;;;;;;;0.10;0.10;;;16.30;55.50;;;;;;5047477;28;20674;-52
2023/07/15 09:34:12;;;;;;;0.10;0.10;;;16.20;55.50;;;;;;5049992;28;20199;-51
2023/07/15 09:36:43;;;;;;;0.10;0.10;;;16.20;55.50;;;;;;5050053;28;20227;-55
2023/07/15 09:39:19;;;;;;;0.10;0.10;;;16.30;55.60;;;;;;5050676;28;20257;-53
2023/07/15 09:42:03;;;;;;;0.10;0.10;;;16.20;55.60;;;;;;5050229;28;20199;-54
2023/07/15 09:44:45;;;;;;;0.10;0.10;;;16.20;55.70;;;;;;5033838;28;20212;-54
2023/07/15 09:47:16;;;;;;;0.10;0.10;;;16.20;56.30;;;;;;5046563;28;20188;-53
2023/07/15 09:49:46;;;;;;;0.10;0.10;;;16.20;55.70;;;;;;5049354;28;20195;-55
2023/07/15 09:52:18;;;;;;;0.10;0.10;;;16.20;55.70;;;;;;5050501;28;20253;-55
2023/07/15 09:54:50;;;;;;;0.10;0.10;;;16.20;55.70;;;;;;5043008;28;20219;-55
2023/07/15 09:57:22;;;;;;;0.03;0.03;;;16.20;55.80;;;;;;5038777;28;20191;-57
2023/07/15 09:59:57;;;;;;;0.10;0.10;;;16.20;55.80;;;;;;5050815;28;20286;-55
2023/07/15 10:02:38;;;;;;;0.10;0.10;;;16.20;55.80;;;;;;5052538;28;20190;-56
2023/07/15 10:05:13;;;;;;;0.10;0.10;;;16.20;55.80;;;;;;5054621;28;20230;-56
2023/07/15 10:07:44;;;;;;;0.10;0.10;;;16.20;55.80;;;;;;5054572;28;20279;-56
2023/07/15 10:10:14;;;;;;;0.10;0.10;;;16.20;55.80;;;;;;5053775;28;20192;-56
2023/07/15 10:12:45;;;;;;;0.00;0.00;;;16.20;55.80;;;;;;5053384;28;20187;-56
2023/07/15 10:15:18;;;;;;;0.10;0.10;;;16.20;55.90;;;;;;5053525;28;20230;-56
2023/07/15 10:17:50;;;;;;;0.00;0.00;;;16.20;55.90;;;;;;5054066;28;20192;-56
2023/07/15 10:20:22;;;;;;;0.10;0.10;;;16.20;56.50;;;;;;5053920;28;20191;-55
2023/07/15 10:22:53;;;;;;;0.03;0.03;;;16.20;55.90;;;;;;5054153;28;20195;-56
2023/07/15 10:25:24;;;;;;;0.10;0.10;;;16.20;56.00;;;;;;5053942;28;20220;-56
2023/07/15 10:28:13;;;;;;;0.10;0.10;;;16.20;56.00;;;;;;5053223;28;20207;-56
2023/07/15 10:31:10;;;;;;;0.00;0.00;;;16.20;56.00;;;;;;5048929;28;20231;-55
2023/07/15 10:33:54;;;;;;;0.00;0.00;;;16.10;55.90;;;;;;5051638;28;20195;-54
2023/07/15 10:36:42;;;;;;;0.10;0.10;;;16.20;56.00;;;;;;5052944;28;20310;-56
2023/07/15 10:39:17;;;;;;;0.10;0.10;;;16.20;56.00;;;;;;5054114;28;20227;-55
2023/07/15 10:41:48;;;;;;;0.10;0.10;;;16.10;55.90;;;;;;5053734;28;20205;-54
2023/07/15 10:44:19;;;;;;;0.10;0.10;;;16.10;55.90;;;;;;5052640;28;20381;-55
2023/07/15 10:47:05;;;;;;;0.05;0.05;;;16.10;56.00;;;;;;5052868;28;20249;-54
2023/07/15 10:49:35;;;;;;;0.10;0.10;;;16.10;56.00;;;;;;5053278;28;20204;-55
2023/07/15 10:52:07;;;;;;;0.10;0.10;;;16.10;56.00;;;;;;5053241;28;20639;-54
2023/07/15 10:54:40;;;;;;;0.03;0.03;;;16.10;56.10;;;;;;5052420;28;20285;-56
2023/07/15 10:57:12;;;;;;;0.10;0.10;;;16.10;56.10;;;;;;5053233;28;20936;-53
2023/07/15 10:59:44;;;;;;;0.10;0.10;;;16.10;56.10;;;;;;5053661;28;20191;-52
2023/07/15 11:02:17;;;;;;;0.10;0.10;;;16.10;56.10;;;;;;5052258;28;20200;-55
2023/07/15 11:04:49;;;;;;;0.17;0.17;;;16.10;56.10;;;;;;5053813;28;20272;-54
2023/07/15 11:07:20;;;;;;;0.10;0.10;;;16.10;56.20;;;;;;5053228;28;20261;-55
2023/07/15 11:09:50;;;;;;;0.10;0.10;;;16.10;56.20;;;;;;5072057;28;20210;-54
2023/07/15 11:12:21;;;;;;;0.10;0.10;;;16.10;56.20;;;;;;5068281;28;20196;-55
2023/07/15 11:14:52;;;;;;;0.10;0.10;;;16.10;56.20;;;;;;5052252;28;20216;-56
2023/07/15 11:17:24;;;;;;;0.10;0.10;;;16.10;56.20;;;;;;5052859;28;20195;-53
2023/07/15 11:19:55;;;;;;;0.10;0.10;;;16.10;56.20;;;;;;5053295;28;20202;-51
2023/07/15 11:22:25;;;;;;;0.10;0.10;;;16.10;56.20;;;;;;5052078;28;20605;-53
2023/07/15 11:24:57;;;;;;;0.00;0.00;;;16.10;56.20;;;;;;5052930;28;20702;-53
2023/07/15 11:27:28;;;;;;;0.03;0.03;;;16.00;56.10;;;;;;5060497;28;20200;-54
2023/07/15 11:30:02;;;;;;;0.10;0.10;;;16.00;56.10;;;;;;5051675;28;20199;-53
2023/07/15 11:32:34;;;;;;;0.10;0.10;;;16.00;56.30;;;;;;5038844;28;20196;-56
2023/07/15 11:35:14;;;;;;;0.10;0.10;;;16.00;56.20;;;;;;5051104;28;20695;-55
2023/07/15 11:37:48;;;;;;;0.10;0.10;;;16.00;56.20;;;;;;5052702;28;20729;-55
2023/07/15 11:40:19;;;;;;;0.10;0.10;;;16.00;56.20;;;;;;5052532;28;20196;-56
2023/07/15 11:42:52;;;;;;;0.10;0.10;;;16.00;56.20;;;;;;5052674;28;20207;-54
2023/07/15 11:45:25;;;;;;;0.10;0.10;;;16.00;56.30;;;;;;5052543;28;20517;-53
2023/07/15 11:47:59;;;;;;;0.10;0.10;;;16.00;56.30;;;;;;5052149;28;20338;-51
2023/07/15 11:50:30;;;;;;;0.10;0.10;;;16.00;56.30;;;;;;5052537;28;20663;-53
2023/07/15 11:53:01;;;;;;;0.10;0.10;;;16.00;56.30;;;;;;5035699;28;20539;-55
2023/07/15 11:55:31;;;;;;;0.10;0.10;;;16.00;56.30;;;;;;5032142;28;20224;-55
2023/07/15 11:58:02;;;;;;;0.10;0.10;;;16.00;56.30;;;;;;5033430;28;20195;-56
2023/07/15 12:00:34;;;;;;;0.10;0.10;;;16.00;56.30;;;;;;5037371;28;20192;-54
2023/07/15 12:03:12;;;;;;;0.10;0.10;;;16.00;56.40;;;;;;5048034;28;20458;-56
2023/07/15 12:05:43;;;;;;;0.10;0.10;;;16.00;56.30;;;;;;5031983;28;20212;-54
2023/07/15 12:08:16;;;;;;;0.10;0.10;;;16.00;56.30;;;;;;5032443;28;20573;-56
2023/07/15 12:11:01;;;;;;;0.10;0.10;;;16.00;56.30;;;;;;5031940;28;20192;-57
2023/07/15 12:13:31;;;;;;;0.10;0.10;;;16.00;56.40;;;;;;5032405;28;20254;-56
2023/07/15 12:16:03;;;;;;;0.10;0.10;;;16.00;56.40;;;;;;5041165;28;20215;-55
2023/07/15 12:18:36;;;;;;;0.10;0.10;;;16.00;56.40;;;;;;5042104;28;20188;-57
2023/07/15 12:21:06;;;;;;;0.10;0.10;;;16.00;56.40;;;;;;5042044;28;20192;-56
2023/07/15 12:23:37;;;;;;;0.10;0.10;;;16.00;56.50;;;;;;5041113;28;20199;-56
2023/07/15 12:26:07;;;;;;;0.20;0.20;;;16.00;56.50;;;;;;5041477;28;20211;-56
2023/07/15 12:28:38;;;;;;;0.10;0.10;;;16.00;56.50;;;;;;5043189;28;20647;-55
2023/07/15 12:31:09;;;;;;;0.10;0.10;;;16.00;56.50;;;;;;5040611;28;20245;-56
2023/07/15 12:33:41;;;;;;;0.10;0.10;;;16.00;56.50;;;;;;5043219;28;20195;-56
2023/07/15 12:36:13;;;;;;;0.10;0.10;;;16.00;56.40;;;;;;5041717;28;20227;-57
2023/07/15 12:38:44;;;;;;;0.10;0.10;;;16.00;56.40;;;;;;5040941;28;20584;-57
2023/07/15 12:41:15;;;;;;;0.17;0.17;;;16.00;56.40;;;;;;5041583;28;20656;-56
2023/07/15 12:43:46;;;;;;;0.10;0.10;;;16.00;56.40;;;;;;5040697;28;20195;-54
2023/07/15 12:46:17;;;;;;;0.05;0.05;;;16.00;56.40;;;;;;5040740;28;20211;-55
2023/07/15 12:48:51;;;;;;;0.10;0.10;;;16.00;56.40;;;;;;5041038;28;20184;-53
2023/07/15 12:51:21;;;;;;;0.10;0.10;;;16.00;56.40;;;;;;5040575;28;20202;-56
2023/07/15 12:53:52;;;;;;;0.00;0.00;;;16.00;56.40;;;;;;5041351;28;20254;-53
2023/07/15 12:56:23;;;;;;;0.10;0.10;;;16.00;56.50;;;;;;5042153;28;20227;-56
2023/07/15 12:58:53;;;;;;;0.10;0.10;;;16.00;56.50;;;;;;5041805;28;20192;-54
2023/07/15 13:01:24;;;;;;;0.10;0.10;;;16.00;56.50;;;;;;5040435;28;20192;-56
2023/07/15 13:03:56;;;;;;;0.10;0.10;;;16.00;56.50;;;;;;5041374;28;20184;-55
2023/07/15 13:06:27;;;;;;;0.00;0.00;;;16.00;56.60;;;;;;5040490;28;20200;-55
2023/07/15 13:08:57;;;;;;;0.08;0.08;;;16.00;56.60;;;;;;5040867;28;20187;-56
2023/07/15 13:11:28;;;;;;;0.10;0.10;;;16.00;56.50;;;;;;5040400;28;20223;-57